Time;durP1;ratioP1;P1;durP2;ratioP2;P2;SDS_P1;SDS_P2;PMS_P1;PMS_P2;Temp;Humidity;BMP_temperature;BMP_pressure;BME280_temperature;BME280_humidity;BME280_pressure;Samples;Min_cycle;Max_cycle;Signal;HPM_P1;HPM_P2
2023/01/26 00:02:15;;;;;;;82.32;31.42;;;;;;;1.34;100.00;102592.56;5068038;28;20039;-68
2023/01/26 00:04:40;;;;;;;80.90;29.50;;;;;;;1.28;100.00;102592.34;5067740;28;20609;-67
2023/01/26 00:07:06;;;;;;;86.32;30.15;;;;;;;1.32;100.00;102583.84;5068031;28;20056;-66
2023/01/26 00:09:31;;;;;;;85.97;30.80;;;;;;;1.27;100.00;102586.28;5067948;28;20056;-64
2023/01/26 00:11:56;;;;;;;88.65;32.60;;;;;;;1.25;100.00;102583.63;5062999;28;20423;-65
2023/01/26 00:14:22;;;;;;;83.78;30.95;;;;;;;1.32;100.00;102599.44;5047038;28;20098;-65
2023/01/26 00:16:47;;;;;;;84.20;30.42;;;;;;;1.30;100.00;102585.50;5028960;28;20025;-64
2023/01/26 00:19:12;;;;;;;88.88;30.83;;;;;;;1.31;100.00;102588.16;5047386;28;20029;-66
2023/01/26 00:21:38;;;;;;;87.82;32.05;;;;;;;1.36;100.00;102585.72;5047579;28;20032;-65
2023/01/26 00:24:03;;;;;;;86.47;30.73;;;;;;;1.41;100.00;102584.13;5047846;28;20057;-64
2023/01/26 00:26:29;;;;;;;91.35;32.15;;;;;;;1.37;100.00;102587.47;5047841;28;20508;-64
2023/01/26 00:28:54;;;;;;;84.85;31.45;;;;;;;1.28;100.00;102587.16;5046987;28;20037;-65
2023/01/26 00:31:22;;;;;;;92.10;32.00;;;;;;;1.29;100.00;102588.94;5048085;28;20380;-64
2023/01/26 00:33:47;;;;;;;88.38;31.58;;;;;;;1.34;100.00;102576.97;5030112;28;20031;-63
2023/01/26 00:36:12;;;;;;;82.70;29.88;;;;;;;1.29;100.00;102574.22;5047616;28;20025;-63
2023/01/26 00:38:38;;;;;;;86.50;30.15;;;;;;;1.24;100.00;102568.00;5046770;28;20127;-64
2023/01/26 00:41:04;;;;;;;87.95;31.83;;;;;;;1.29;100.00;102562.97;5029732;28;20032;-64
2023/01/26 00:43:29;;;;;;;89.55;31.08;;;;;;;1.36;100.00;102559.72;5027813;28;20033;-65
2023/01/26 00:45:54;;;;;;;85.18;30.15;;;;;;;1.41;100.00;102558.16;5027961;28;20039;-64
2023/01/26 00:48:20;;;;;;;81.47;31.05;;;;;;;1.45;100.00;102565.22;5047360;28;20037;-65
2023/01/26 00:50:45;;;;;;;83.43;29.90;;;;;;;1.41;100.00;102560.75;5051447;28;20049;-65
2023/01/26 00:53:11;;;;;;;87.60;31.52;;;;;;;1.36;100.00;102557.13;5062189;28;20238;-68
2023/01/26 00:55:36;;;;;;;90.97;31.42;;;;;;;1.41;100.00;102558.16;5066692;28;20048;-64
2023/01/26 00:58:04;;;;;;;83.80;29.02;;;;;;;1.25;100.00;102557.66;5066203;28;20060;-65
2023/01/26 01:00:30;;;;;;;87.80;30.90;;;;;;;1.31;100.00;102545.69;5049049;28;20025;-64
2023/01/26 01:02:56;;;;;;;84.43;30.30;;;;;;;1.33;100.00;102547.53;5050869;28;20021;-64
2023/01/26 01:05:22;;;;;;;85.18;30.48;;;;;;;1.34;100.00;102543.22;5050282;28;20458;-64
2023/01/26 01:07:48;;;;;;;86.15;31.48;;;;;;;1.34;100.00;102535.41;5033671;28;20025;-63
2023/01/26 01:10:14;;;;;;;79.18;29.70;;;;;;;1.41;100.00;102533.91;5064020;28;20111;-63
2023/01/26 01:12:39;;;;;;;81.38;29.65;;;;;;;1.45;100.00;102533.16;5071609;28;20063;-66
2023/01/26 01:15:05;;;;;;;78.97;30.02;;;;;;;1.36;100.00;102533.75;5073623;28;20451;-64
2023/01/26 01:17:31;;;;;;;80.53;28.50;;;;;;;1.38;100.00;102532.97;5075577;28;20029;-65
2023/01/26 01:19:56;;;;;;;79.57;26.98;;;;;;;1.21;100.00;102529.81;5074299;28;20425;-65
2023/01/26 01:22:21;;;;;;;84.60;30.17;;;;;;;1.38;100.00;102526.88;5071118;28;20032;-64
2023/01/26 01:24:47;;;;;;;75.30;26.88;;;;;;;1.42;100.00;102527.88;5077168;28;20055;-65
2023/01/26 01:27:12;;;;;;;81.45;29.05;;;;;;;1.37;100.00;102525.13;5058693;28;20032;-64
2023/01/26 01:29:37;;;;;;;77.18;27.67;;;;;;;1.34;100.00;102525.91;5054268;28;20027;-65
2023/01/26 01:32:03;;;;;;;81.90;28.77;;;;;;;1.42;100.00;102531.38;5052939;28;20392;-65
2023/01/26 01:34:28;;;;;;;75.43;27.88;;;;;;;1.43;100.00;102534.81;5052516;28;20029;-65
2023/01/26 01:36:54;;;;;;;77.90;29.02;;;;;;;1.40;100.00;102527.81;5035014;28;20033;-65
2023/01/26 01:39:19;;;;;;;75.57;28.98;;;;;;;1.43;100.00;102529.63;5052207;28;20049;-65
2023/01/26 01:41:45;;;;;;;82.68;29.90;;;;;;;1.49;100.00;102528.13;5051275;28;20333;-63
2023/01/26 01:44:17;;;;;;;77.90;28.20;;;;;;;1.46;100.00;102534.91;5050898;28;20463;-65
2023/01/26 01:46:50;;;;;;;78.68;28.73;;;;;;;1.53;100.00;102538.59;5050762;28;20036;-66
2023/01/26 01:49:38;;;;;;;74.22;27.23;;;;;;;1.47;100.00;102534.97;5032848;28;20265;-67
2023/01/26 01:52:19;;;;;;;88.35;30.15;;;;;;;1.47;100.00;102534.97;5050398;28;20041;-64
2023/01/26 01:55:06;;;;;;;89.97;28.73;;;;;;;1.49;100.00;102538.50;5064316;28;20060;-64
2023/01/26 01:57:45;;;;;;;78.20;29.27;;;;;;;1.46;100.00;102541.00;5069972;28;20482;-66
2023/01/26 02:00:13;;;;;;;81.03;28.08;;;;;;;1.50;100.00;102535.06;5068757;28;20819;-64
2023/01/26 02:02:38;;;;;;;83.47;29.15;;;;;;;1.47;100.00;102529.78;5052242;28;20032;-64
2023/01/26 02:05:18;;;;;;;88.28;30.08;;;;;;;1.49;100.00;102527.22;5052412;28;20133;-64
2023/01/26 02:07:44;;;;;;;85.00;28.80;;;;;;;1.55;100.00;102526.53;5052148;28;20112;-65
2023/01/26 02:10:18;;;;;;;85.28;29.60;;;;;;;1.53;100.00;102523.88;5070071;28;20037;-65
2023/01/26 02:12:45;;;;;;;82.63;30.65;;;;;;;1.46;100.00;102529.72;5052736;28;20024;-65
2023/01/26 02:15:11;;;;;;;80.05;28.92;;;;;;;1.46;100.00;102533.22;5032691;28;20040;-65
2023/01/26 02:17:37;;;;;;;93.07;30.00;;;;;;;1.54;100.00;102532.56;5031157;28;20040;-65
2023/01/26 02:20:27;;;;;;;87.68;29.67;;;;;;;1.56;100.00;102533.50;5049203;28;20651;-65
2023/01/26 02:23:15;;;;;;;92.65;30.60;;;;;;;1.49;100.00;102530.72;5031691;28;20044;-64
2023/01/26 02:25:52;;;;;;;84.28;31.25;;;;;;;1.50;100.00;102529.88;5111824;22;20013;-66
2023/01/26 02:28:21;;;;;;;89.93;31.35;;;;;;;1.50;100.00;102532.47;5009028;28;20064;-64
2023/01/26 02:30:46;;;;;;;80.95;28.90;;;;;;;1.50;100.00;102524.69;4992422;28;20026;-65
2023/01/26 02:33:31;;;;;;;87.55;30.20;;;;;;;1.51;100.00;102526.44;5008895;28;20073;-65
2023/01/26 02:35:57;;;;;;;78.97;30.15;;;;;;;1.61;100.00;102525.00;4992393;28;20033;-64
2023/01/26 02:38:25;;;;;;;77.70;27.80;;;;;;;1.59;100.00;102525.78;4997599;28;20021;-64
2023/01/26 02:44:09;;;;;;;74.68;28.15;;;;;;;1.55;100.00;102529.13;4973051;28;20052;-64
2023/01/26 02:46:34;;;;;;;85.95;28.73;;;;;;;1.54;100.00;102537.75;5028643;28;20022;-65
2023/01/26 02:51:43;;;;;;;86.57;29.80;;;;;;;1.58;100.00;102540.50;5014053;28;20545;-64
2023/01/26 02:55:21;;;;;;;80.03;28.88;;;;;;;1.61;100.00;102542.31;5029710;28;20025;-63
2023/01/26 02:56:54;;;;;;;81.03;27.58;;;;;;;1.58;100.00;102547.41;5029844;28;20037;-63
2023/01/26 02:59:19;;;;;;;83.22;28.25;;;;;;;1.64;100.00;102545.91;5029338;28;20124;-63
2023/01/26 03:01:48;;;;;;;79.43;28.92;;;;;;;1.70;100.00;102549.50;5028026;28;20028;-64
2023/01/26 03:04:13;;;;;;;81.10;27.88;;;;;;;1.69;100.00;102547.75;5011437;28;20127;-64
2023/01/26 03:06:38;;;;;;;82.75;29.42;;;;;;;1.62;100.00;102541.47;5032171;28;20088;-63
2023/01/26 03:09:04;;;;;;;78.78;28.23;;;;;;;1.61;100.00;102544.91;5015395;28;20029;-64
2023/01/26 03:11:40;;;;;;;81.10;28.75;;;;;;;1.68;100.00;102536.47;5031095;28;20033;-63
2023/01/26 03:14:06;;;;;;;80.40;27.52;;;;;;;1.69;100.00;102538.25;5032048;28;20022;-64
2023/01/26 03:16:32;;;;;;;83.75;29.60;;;;;;;1.66;100.00;102542.47;5035827;28;20108;-64
2023/01/26 03:29:41;;;;;;;79.90;28.95;;;;;;;1.68;100.00;102531.28;5030086;28;20478;-64
2023/01/26 03:32:06;;;;;;;83.47;28.08;;;;;;;1.63;100.00;102530.25;5029935;28;20045;-64
2023/01/26 03:34:31;;;;;;;73.82;26.50;;;;;;;1.64;100.00;102530.31;5011865;28;20033;-65
2023/01/26 03:36:57;;;;;;;76.97;28.13;;;;;;;1.69;100.00;102538.25;5029531;28;20706;-63
2023/01/26 03:58:39;;;;;;;79.72;28.33;;;;;;;1.88;100.00;102537.09;5027176;28;20680;-63
2023/01/26 04:01:05;;;;;;;79.28;27.55;;;;;;;1.91;100.00;102527.59;5028299;28;20113;-62
2023/01/26 04:08:58;;;;;;;79.63;26.77;;;;;;;1.96;100.00;102529.50;5028165;28;20738;-62
2023/01/26 04:11:24;;;;;;;79.07;27.90;;;;;;;2.07;100.00;102521.13;5028036;28;20029;-62
2023/01/26 04:22:01;;;;;;;71.15;25.17;;;;;;;2.08;100.00;102541.09;5027632;28;20049;-62
2023/01/26 04:24:26;;;;;;;82.30;28.45;;;;;;;2.11;100.00;102538.59;5027429;28;20029;-65
2023/01/26 04:26:51;;;;;;;79.93;27.85;;;;;;;2.16;100.00;102534.41;5027999;28;20045;-63
2023/01/26 04:29:17;;;;;;;78.10;28.27;;;;;;;2.16;100.00;102536.13;5027785;28;20560;-65
2023/01/26 04:31:42;;;;;;;74.93;27.23;;;;;;;2.21;100.00;102538.03;5027529;28;20025;-65
2023/01/26 04:34:13;;;;;;;81.30;27.45;;;;;;;2.26;100.00;102536.41;5028147;28;20029;-64
2023/01/26 04:36:39;;;;;;;76.28;28.35;;;;;;;2.22;100.00;102533.69;5031239;28;20025;-65
2023/01/26 04:39:04;;;;;;;74.28;26.33;;;;;;;2.22;100.00;102531.97;5032089;28;20363;-65
2023/01/26 04:41:30;;;;;;;78.80;27.20;;;;;;;2.21;100.00;102531.94;5031696;28;20078;-65
2023/01/26 04:43:55;;;;;;;76.63;27.02;;;;;;;2.27;100.00;102538.19;5012880;28;20030;-64
2023/01/26 04:46:21;;;;;;;78.65;27.85;;;;;;;2.11;100.00;102538.59;5032447;28;20387;-64
2023/01/26 04:48:46;;;;;;;80.32;27.52;;;;;;;2.18;100.00;102529.25;5031385;28;20510;-64
2023/01/26 04:51:14;;;;;;;77.50;27.00;;;;;;;2.23;100.00;102525.06;5031670;28;20040;-64
2023/01/26 04:53:40;;;;;;;77.00;27.80;;;;;;;2.21;100.00;102527.63;5031848;28;20026;-64
2023/01/26 04:56:07;;;;;;;78.40;26.63;;;;;;;2.32;100.00;102525.28;5031805;28;20021;-64
2023/01/26 04:58:33;;;;;;;80.50;28.08;;;;;;;2.33;100.00;102516.69;5031021;28;20036;-65
2023/01/26 05:00:58;;;;;;;75.78;27.65;;;;;;;2.48;100.00;102526.63;5031649;28;20025;-65
2023/01/26 05:03:25;;;;;;;76.43;27.33;;;;;;;2.46;100.00;102528.28;5031125;28;20080;-66
2023/01/26 05:05:53;;;;;;;76.97;27.17;;;;;;;2.55;100.00;102525.06;5022637;28;20053;-63
2023/01/26 05:08:19;;;;;;;75.85;28.30;;;;;;;2.52;100.00;102523.25;5012024;28;20061;-63
2023/01/26 05:10:45;;;;;;;84.57;28.83;;;;;;;2.45;100.00;102525.66;5010042;28;20055;-64
2023/01/26 05:13:11;;;;;;;79.57;28.40;;;;;;;2.35;100.00;102524.53;5010554;28;20030;-64
2023/01/26 05:15:36;;;;;;;79.93;27.58;;;;;;;2.45;100.00;102523.94;5011306;28;20685;-64
2023/01/26 05:18:03;;;;;;;83.18;28.33;;;;;;;2.44;100.00;102523.88;5013386;28;20033;-64
2023/01/26 05:20:28;;;;;;;77.05;26.50;;;;;;;2.60;100.00;102525.19;5030098;28;20513;-63
2023/01/26 05:22:54;;;;;;;75.82;27.38;;;;;;;2.60;100.00;102530.38;5031109;28;20064;-65
2023/01/26 05:25:19;;;;;;;77.63;27.98;;;;;;;2.63;100.00;102536.56;5031717;28;20408;-65
2023/01/26 05:27:45;;;;;;;74.38;26.65;;;;;;;2.67;100.00;102528.84;5029818;28;20041;-65
2023/01/26 05:30:11;;;;;;;82.55;27.95;;;;;;;2.65;100.00;102534.00;5030935;28;20029;-65
2023/01/26 05:32:36;;;;;;;78.78;27.00;;;;;;;2.64;100.00;102527.00;5030164;28;20032;-64
2023/01/26 05:35:03;;;;;;;77.25;27.70;;;;;;;2.65;100.00;102536.59;5030892;28;20034;-66
2023/01/26 05:37:28;;;;;;;80.43;27.92;;;;;;;2.64;100.00;102534.81;5024757;28;20482;-65
2023/01/26 05:39:54;;;;;;;79.55;29.67;;;;;;;2.61;100.00;102537.34;5026435;28;20026;-64
2023/01/26 05:42:21;;;;;;;84.05;29.13;;;;;;;2.57;100.00;102535.50;5032689;28;20036;-63
2023/01/26 05:44:46;;;;;;;80.07;29.25;;;;;;;2.61;100.00;102532.13;5015574;28;20014;-63
2023/01/26 05:47:11;;;;;;;82.75;29.73;;;;;;;2.60;100.00;102539.09;5025753;28;20120;-64
2023/01/26 05:49:44;;;;;;;84.00;29.38;;;;;;;2.68;100.00;102547.06;5029776;28;20088;-63
2023/01/26 05:52:12;;;;;;;74.45;26.55;;;;;;;2.76;100.00;102542.97;5027069;28;20045;-63
2023/01/26 05:54:38;;;;;;;88.72;31.35;;;;;;;2.73;100.00;102545.50;5011924;28;20490;-64
2023/01/26 05:57:03;;;;;;;85.03;29.55;;;;;;;2.77;100.00;102543.88;5029985;28;20148;-65
2023/01/26 05:59:28;;;;;;;92.03;31.33;;;;;;;2.82;100.00;102543.94;5028039;28;20079;-65
2023/01/26 06:01:57;;;;;;;95.68;33.10;;;;;;;2.85;100.00;102546.63;5029475;28;20330;-65
2023/01/26 06:04:22;;;;;;;80.13;29.92;;;;;;;2.93;100.00;102549.44;5011508;28;20064;-65
2023/01/26 06:06:48;;;;;;;88.50;32.03;;;;;;;2.85;100.00;102546.63;5027390;28;20518;-67
2023/01/26 06:09:13;;;;;;;90.50;31.25;;;;;;;2.86;100.00;102544.06;5021314;28;20400;-66
2023/01/26 06:11:39;;;;;;;84.18;29.77;;;;;;;2.91;100.00;102539.00;5029522;28;20184;-65
2023/01/26 06:14:04;;;;;;;92.95;30.27;;;;;;;2.98;100.00;102553.06;5028792;28;20491;-66
2023/01/26 06:16:29;;;;;;;95.18;30.05;;;;;;;3.00;100.00;102546.16;5028676;28;20029;-65
2023/01/26 06:18:55;;;;;;;86.80;27.38;;;;;;;3.04;100.00;102550.59;5012262;28;20104;-65
2023/01/26 06:21:20;;;;;;;89.03;28.85;;;;;;;3.14;100.00;102543.91;5012358;28;20026;-65
2023/01/26 06:23:46;;;;;;;93.20;29.02;;;;;;;3.19;100.00;102551.84;5023317;28;20032;-64
2023/01/26 06:26:11;;;;;;;92.63;29.27;;;;;;;3.15;100.00;102549.16;5029075;28;20456;-63
2023/01/26 06:28:36;;;;;;;90.03;28.35;;;;;;;3.22;100.00;102557.13;5026960;28;20109;-63
2023/01/26 06:31:04;;;;;;;102.60;28.63;;;;;;;3.24;100.00;102556.31;5011288;28;20041;-65
2023/01/26 06:33:34;;;;;;;99.07;28.52;;;;;;;3.22;100.00;102560.59;5029107;28;20148;-64
2023/01/26 06:36:04;;;;;;;100.65;30.38;;;;;;;3.29;100.00;102565.09;5029203;28;20708;-64
2023/01/26 06:38:30;;;;;;;97.15;27.88;;;;;;;3.27;100.00;102566.81;5027902;28;20026;-65
2023/01/26 06:40:59;;;;;;;101.40;29.90;;;;;;;3.25;100.00;102563.28;5029137;28;20018;-64
2023/01/26 06:43:24;;;;;;;100.68;29.67;;;;;;;3.32;100.00;102558.22;5027056;28;20029;-64
2023/01/26 06:45:49;;;;;;;99.75;30.70;;;;;;;3.28;100.00;102567.69;5028173;28;20021;-64
2023/01/26 06:48:15;;;;;;;108.63;31.33;;;;;;;3.25;100.00;102581.53;5028970;28;20025;-65
2023/01/26 06:50:40;;;;;;;98.68;30.08;;;;;;;3.25;100.00;102581.53;5009706;28;20543;-65
2023/01/26 06:53:25;;;;;;;112.70;33.22;;;;;;;3.23;100.00;102582.34;5028456;28;20434;-65
2023/01/26 06:55:51;;;;;;;100.22;30.55;;;;;;;3.24;100.00;102584.09;5027739;28;20073;-64
2023/01/26 06:58:16;;;;;;;105.63;30.42;;;;;;;3.23;100.00;102582.34;5027871;28;20025;-64
2023/01/26 07:00:42;;;;;;;97.65;29.10;;;;;;;3.27;100.00;102584.16;5026870;28;20040;-65
2023/01/26 07:03:09;;;;;;;87.05;27.90;;;;;;;3.26;100.00;102593.72;5020666;28;20032;-65
2023/01/26 07:05:34;;;;;;;94.10;27.25;;;;;;;3.29;100.00;102596.38;5028217;28;20028;-65
2023/01/26 07:08:01;;;;;;;81.85;23.95;;;;;;;3.36;100.00;102594.81;5026781;28;20021;-64
2023/01/26 07:10:26;;;;;;;75.70;23.38;;;;;;;3.40;100.00;102594.03;5027628;28;20036;-64
2023/01/26 07:12:52;;;;;;;85.22;21.95;;;;;;;3.45;100.00;102590.66;5027782;28;20017;-64
2023/01/26 07:15:17;;;;;;;72.97;18.45;;;;;;;3.56;100.00;102583.09;5029083;28;20120;-66
2023/01/26 07:17:43;;;;;;;68.78;15.80;;;;;;;3.73;100.00;102586.97;5028597;28;20049;-66
2023/01/26 07:20:09;;;;;;;63.40;15.43;;;;;;;3.84;100.00;102596.78;5031169;28;20083;-66
2023/01/26 07:22:35;;;;;;;70.05;14.05;;;;;;;3.95;100.00;102597.91;5032280;28;20041;-65
2023/01/26 07:25:00;;;;;;;70.03;14.85;;;;;;;4.13;100.00;102605.25;5019154;28;20037;-66
2023/01/26 07:27:25;;;;;;;66.15;13.00;;;;;;;4.25;100.00;102601.16;5013023;28;20061;-66
2023/01/26 07:29:51;;;;;;;61.47;13.07;;;;;;;4.29;100.00;102603.88;5014943;28;20566;-65
2023/01/26 07:32:16;;;;;;;44.63;10.38;;;;;;;4.35;100.00;102607.44;5014754;28;20018;-65
2023/01/26 07:34:41;;;;;;;53.00;11.18;;;;;;;4.41;100.00;102605.84;5016004;28;20021;-65
2023/01/26 07:37:07;;;;;;;57.95;10.15;;;;;;;4.54;100.00;102617.41;5028611;28;20108;-65
2023/01/26 07:39:32;;;;;;;47.92;9.85;;;;;;;4.57;100.00;102619.19;5023613;28;20264;-65
2023/01/26 07:41:57;;;;;;;57.22;10.15;;;;;;;4.54;100.00;102625.25;5027027;28;20055;-65
2023/01/26 07:44:23;;;;;;;44.95;7.70;;;;;;;4.65;100.00;102622.84;5026799;28;20454;-65
2023/01/26 07:46:48;;;;;;;43.53;7.50;;;;;;;4.68;100.00;102622.03;5027498;28;20531;-64
2023/01/26 07:49:13;;;;;;;54.20;8.23;;;;;;;4.57;100.00;102623.56;5009778;28;20053;-67
2023/01/26 07:51:39;;;;;;;55.97;7.13;;;;;;;4.57;100.00;102634.00;5026233;28;20313;-66
2023/01/26 07:54:05;;;;;;;49.90;6.97;;;;;;;4.55;100.00;102636.56;5026195;28;20025;-64
2023/01/26 07:56:31;;;;;;;47.53;6.35;;;;;;;4.57;100.00;102641.84;5027080;28;20121;-67
2023/01/26 07:58:56;;;;;;;45.22;6.55;;;;;;;4.64;100.00;102643.72;5025347;28;20017;-65
2023/01/26 08:01:22;;;;;;;40.55;6.68;;;;;;;4.61;100.00;102644.50;5027082;28;20048;-65
2023/01/26 08:03:52;;;;;;;27.95;5.35;;;;;;;4.60;100.00;102649.72;5026881;28;20067;-66
2023/01/26 08:06:18;;;;;;;33.47;4.82;;;;;;;4.59;100.00;102650.56;5010248;28;20515;-65
2023/01/26 08:08:45;;;;;;;44.28;6.38;;;;;;;4.67;100.00;102651.59;5027512;28;20044;-66
2023/01/26 08:11:11;;;;;;;53.38;6.10;;;;;;;4.83;100.00;102657.13;5027788;28;20021;-65
2023/01/26 08:13:36;;;;;;;38.80;5.43;;;;;;;4.85;100.00;102650.22;5025577;28;20025;-66
2023/01/26 08:16:04;;;;;;;38.85;5.63;;;;;;;4.83;100.00;102657.13;5028205;28;20026;-66
2023/01/26 08:18:30;;;;;;;43.22;7.00;;;;;;;4.76;100.00;102659.59;5025848;28;20024;-65
2023/01/26 08:20:55;;;;;;;42.63;5.50;;;;;;;4.80;100.00;102652.72;5027199;28;20029;-65
2023/01/26 08:23:21;;;;;;;46.83;5.47;;;;;;;4.78;100.00;102662.25;5009547;28;20064;-67
2023/01/26 08:25:46;;;;;;;51.42;6.68;;;;;;;4.76;100.00;102657.00;5026658;28;20454;-66
2023/01/26 08:28:12;;;;;;;51.70;8.02;;;;;;;4.74;100.00;102657.81;5024253;28;20033;-66
2023/01/26 08:30:38;;;;;;;34.85;6.90;;;;;;;4.71;100.00;102668.19;5026515;28;20492;-67
2023/01/26 08:33:04;;;;;;;56.20;8.60;;;;;;;4.76;100.00;102662.22;5026071;28;20041;-66
2023/01/26 08:35:30;;;;;;;44.42;7.15;;;;;;;4.70;100.00;102667.34;5026548;28;20068;-66
2023/01/26 08:37:56;;;;;;;47.67;6.05;;;;;;;4.70;100.00;102666.44;5009731;28;20025;-65
2023/01/26 08:40:23;;;;;;;46.83;5.90;;;;;;;4.73;100.00;102666.50;5026313;28;20040;-65
2023/01/26 08:42:48;;;;;;;37.58;6.05;;;;;;;4.75;100.00;102664.78;5024853;28;20079;-65
2023/01/26 08:45:14;;;;;;;46.72;6.47;;;;;;;4.77;100.00;102668.34;5026360;28;20038;-65
2023/01/26 08:47:39;;;;;;;31.38;6.13;;;;;;;4.63;100.00;102673.25;5025844;28;20068;-66
2023/01/26 08:50:05;;;;;;;43.80;6.50;;;;;;;4.72;100.00;102676.06;5026109;28;20021;-67
2023/01/26 08:52:30;;;;;;;58.55;5.78;;;;;;;4.66;100.00;102671.59;5027427;28;20214;-66
2023/01/26 08:54:56;;;;;;;47.28;6.70;;;;;;;4.72;100.00;102670.84;5027944;28;20068;-66
2023/01/26 08:57:21;;;;;;;41.15;6.03;;;;;;;4.74;100.00;102669.16;5026872;28;20412;-64
2023/01/26 08:59:46;;;;;;;42.88;5.60;;;;;;;4.86;100.00;102673.75;5014391;28;20406;-64
2023/01/26 09:02:12;;;;;;;51.60;7.28;;;;;;;4.93;100.00;102679.97;5005780;28;20022;-66
2023/01/26 09:04:37;;;;;;;55.53;7.18;;;;;;;5.10;100.00;102677.69;5006147;28;20071;-66
2023/01/26 09:07:02;;;;;;;40.72;5.80;;;;;;;5.22;100.00;102679.63;4989303;28;20472;-64
2023/01/26 09:09:28;;;;;;;49.67;7.32;;;;;;;5.29;100.00;102685.84;5019906;28;20104;-64
2023/01/26 09:11:56;;;;;;;40.78;5.18;;;;;;;5.18;100.00;102688.28;5026080;28;20094;-66
2023/01/26 09:14:22;;;;;;;37.40;5.20;;;;;;;5.28;100.00;102690.22;4991964;28;20075;-65
2023/01/26 09:16:48;;;;;;;34.63;5.63;;;;;;;5.33;100.00;102700.75;5009443;28;20384;-65
2023/01/26 09:19:13;;;;;;;42.63;5.43;;;;;;;5.54;100.00;102695.00;5027316;28;20017;-66
2023/01/26 09:21:39;;;;;;;36.83;4.63;;;;;;;5.63;100.00;102703.88;5027336;28;20437;-65
2023/01/26 09:24:04;;;;;;;35.00;5.65;;;;;;;5.61;100.00;102700.34;5029572;28;20064;-65
2023/01/26 09:26:30;;;;;;;34.63;4.32;;;;;;;5.68;100.00;102699.59;5029889;28;20060;-64
2023/01/26 09:28:55;;;;;;;49.83;6.03;;;;;;;5.57;100.00;102699.44;5029196;28;20026;-65
2023/01/26 09:31:21;;;;;;;39.92;4.32;;;;;;;5.57;100.00;102695.06;5030562;28;20395;-65
2023/01/26 09:33:47;;;;;;;34.50;4.93;;;;;;;5.50;100.00;102708.88;5021741;28;20488;-66
2023/01/26 09:36:13;;;;;;;35.28;4.57;;;;;;;5.59;100.00;102699.41;5026682;28;20037;-65
2023/01/26 09:38:39;;;;;;;33.85;4.60;;;;;;;5.64;100.00;102703.00;5026880;28;20036;-65
2023/01/26 09:41:27;;;;;;;40.95;5.18;;;;;;;5.50;100.00;102701.03;5030305;28;20492;-66
2023/01/26 09:43:56;;;;;;;30.15;4.30;;;;;;;5.62;100.00;102702.09;5013607;28;20037;-66
2023/01/26 09:46:24;;;;;;;40.25;5.40;;;;;;;5.59;100.00;102702.94;5030059;28;20021;-66
2023/01/26 09:48:59;;;;;;;43.28;5.15;;;;;;;5.44;100.00;102700.94;5027878;28;20018;-66
2023/01/26 09:51:36;;;;;;;32.53;4.78;;;;;;;5.45;100.00;102700.09;5027846;28;20014;-66
2023/01/26 09:54:19;;;;;;;32.28;5.75;;;;;;;5.54;100.00;102700.22;5026840;28;20033;-66
2023/01/26 09:56:44;;;;;;;35.03;4.15;;;;;;;5.61;100.00;102706.47;5028639;28;20067;-66
2023/01/26 09:59:33;;;;;;;26.75;4.25;;;;;;;5.67;100.00;102705.69;5028057;28;20025;-63
2023/01/26 10:02:00;;;;;;;;;;;;;;;5.89;100.00;102712.16;5027239;28;20342;-64
2023/01/26 10:04:32;;;;;;;37.95;5.07;;;;;;;5.80;100.00;102706.75;5029502;28;19966;-67
2023/01/26 10:06:59;;;;;;;44.10;5.22;;;;;;;5.92;100.00;102708.69;5028414;28;20053;-67
2023/01/26 10:09:31;;;;;;;40.10;4.93;;;;;;;6.10;100.00;102707.25;5028095;28;20387;-67
2023/01/26 10:12:02;;;;;;;42.22;4.28;;;;;;;6.13;100.00;102702.06;5023282;28;20160;-67
2023/01/26 10:14:35;;;;;;;38.60;5.22;;;;;;;6.19;100.00;102707.38;5027146;28;20048;-67
2023/01/26 10:17:03;;;;;;;42.83;4.40;;;;;;;6.29;100.00;102705.81;5010287;28;20113;-66
2023/01/26 10:19:34;;;;;;;34.05;4.07;;;;;;;6.24;100.00;102708.34;5011089;28;20033;-67
2023/01/26 10:22:04;;;;;;;34.08;3.83;;;;;;;6.40;100.00;102711.16;5027368;28;20112;-67
2023/01/26 10:24:32;;;;;;;32.78;4.00;;;;;;;6.48;100.00;102706.94;5028708;28;20037;-67
2023/01/26 10:26:58;;;;;;;36.20;4.80;;;;;;;6.44;100.00;102705.09;5028523;28;20472;-66
2023/01/26 10:29:23;;;;;;;35.28;5.07;;;;;;;6.52;100.00;102711.34;5028643;28;20109;-66
2023/01/26 10:31:49;;;;;;;29.55;5.20;;;;;;;6.70;100.00;102709.81;5012262;28;20105;-65
2023/01/26 10:34:17;;;;;;;34.83;4.50;;;;;;;6.76;100.00;102716.88;5028797;28;20479;-65
2023/01/26 10:36:44;;;;;;;29.30;5.35;;;;;;;6.54;100.00;102706.97;5011313;28;20025;-64
2023/01/26 10:39:15;;;;;;;29.95;3.95;;;;;;;6.66;100.00;102721.13;5029121;28;20163;-65
2023/01/26 10:41:55;;;;;;;33.58;6.07;;;;;;;6.86;100.00;102730.97;5006326;28;20018;-66
2023/01/26 10:44:22;;;;;;;36.88;4.53;;;;;;;6.63;100.00;102714.13;5026326;28;20032;-67
2023/01/26 10:47:02;;;;;;;31.77;4.90;;;;;;;6.94;100.00;102716.22;5011282;28;20104;-69
2023/01/26 10:49:27;;;;;;;32.40;3.97;;;;;;;7.07;100.00;102717.22;5027644;28;20487;-66
2023/01/26 10:52:16;;;;;;;28.23;3.90;;;;;;;6.86;100.00;102718.72;5028235;28;20029;-68
2023/01/26 10:54:43;;;;;;;37.97;5.13;;;;;;;6.98;100.00;102728.47;5028694;28;20551;-65
2023/01/26 10:57:27;;;;;;;15.88;3.78;;;;;;;7.16;100.00;102724.31;5026270;28;20874;-66
2023/01/26 10:59:57;;;;;;;25.65;3.70;;;;;;;7.18;100.00;102727.84;5026894;28;20367;-69
2023/01/26 11:02:25;;;;;;;28.40;3.75;;;;;;;7.09;100.00;102726.00;5028126;28;20037;-67
2023/01/26 11:05:06;;;;;;;20.13;3.55;;;;;;;7.31;100.00;102729.72;5029027;28;20057;-69
2023/01/26 11:07:34;;;;;;;31.30;4.28;;;;;;;7.50;100.00;102718.53;5010616;28;20029;-66
2023/01/26 11:10:20;;;;;;;16.58;3.60;;;;;;;7.34;100.00;102723.63;5027603;28;20086;-67
2023/01/26 11:12:46;;;;;;;20.70;4.03;;;;;;;7.29;100.00;102726.19;5026906;28;20033;-66
2023/01/26 11:15:23;;;;;;;28.60;3.22;;;;;;;7.61;100.00;102714.25;5025408;28;20044;-67
2023/01/26 11:17:58;;;;;;;25.38;4.38;;;;;;;7.61;100.00;102703.75;5009352;28;20021;-67
2023/01/26 11:20:39;;;;;;;34.78;4.18;;;;;;;7.58;100.00;102707.25;5027120;28;20025;-68
2023/01/26 11:23:23;;;;;;;23.95;3.65;;;;;;;7.40;100.00;102702.72;5027882;28;20031;-67
2023/01/26 11:26:10;;;;;;;23.83;3.17;;;;;;;7.29;100.00;102714.84;5027429;28;20534;-68
2023/01/26 11:28:41;;;;;;;22.48;2.97;;;;;;;7.74;100.00;102711.75;5028274;28;20037;-68
2023/01/26 11:31:13;;;;;;;16.70;3.22;;;;;;;7.57;100.00;102713.38;5011737;28;20480;-68
2023/01/26 11:33:58;;;;;;;21.20;2.95;;;;;;;7.70;100.00;102716.06;5031453;28;20029;-70
2023/01/26 11:37:05;;;;;;;26.90;3.20;;;;;;;7.81;100.00;102706.56;5016772;28;20037;-68
2023/01/26 11:40:04;;;;;;;31.88;4.13;;;;;;;8.01;100.00;102708.44;5006902;28;20071;-67
2023/01/26 11:42:35;;;;;;;22.70;3.05;;;;;;;8.11;100.00;102704.16;5028822;28;20551;-68
2023/01/26 11:45:43;;;;;;;27.15;3.60;;;;;;;7.99;100.00;102706.69;5018164;28;20033;-68
2023/01/26 11:48:17;;;;;;;15.23;2.88;;;;;;;8.04;100.00;102715.47;5023917;28;20034;-68
2023/01/26 11:50:53;;;;;;;20.55;3.03;;;;;;;8.24;100.00;102702.47;5019578;28;20029;-67
2023/01/26 11:53:37;;;;;;;20.42;2.90;;;;;;;8.24;100.00;102694.59;4991471;28;20471;-67
2023/01/26 11:56:16;;;;;;;20.45;2.65;;;;;;;8.33;100.00;102705.16;5025802;28;20029;-66
2023/01/26 11:58:45;;;;;;;17.42;2.92;;;;;;;8.69;100.00;102697.47;5023285;28;20045;-69
2023/01/26 12:01:13;;;;;;;;;;;;;;;8.42;100.00;102700.81;5027493;28;20056;-68
2023/01/26 12:03:44;;;;;;;16.23;2.97;;;;;;;8.77;100.00;102699.25;5026001;28;19909;-69
2023/01/26 12:06:22;;;;;;;18.83;2.58;;;;;;;8.70;100.00;102699.22;5025266;28;20091;-68
2023/01/26 12:08:51;;;;;;;23.67;3.28;;;;;;;8.92;100.00;102695.78;5026803;28;20375;-68